createdAt,value
2023-04-25T00:00:51.163Z,4.05
2023-04-25T00:05:52.889Z,4.22
2023-04-25T00:10:54.491Z,4.18
2023-04-25T00:15:56.197Z,4.38
2023-04-25T00:20:57.899Z,3.70
2023-04-25T00:25:59.436Z,4.60
2023-04-25T00:31:00.995Z,4.10
2023-04-25T00:36:02.763Z,5.18
2023-04-25T00:41:06.916Z,4.35
2023-04-25T00:46:08.429Z,5.03
2023-04-25T00:51:14.877Z,4.95
2023-04-25T00:56:17.525Z,4.38
2023-04-25T01:01:19.276Z,4.85
2023-04-25T01:06:21.162Z,4.68
2023-04-25T01:11:22.705Z,4.75
2023-04-25T01:16:25.296Z,4.53
2023-04-25T01:21:27.055Z,5.50
2023-04-25T01:26:28.678Z,5.57
2023-04-25T01:31:31.189Z,4.95
2023-04-25T01:36:33.171Z,5.35
2023-04-25T01:41:35.641Z,4.30
2023-04-25T01:46:37.918Z,5.28
2023-04-25T01:51:40.220Z,5.80
2023-04-25T01:56:42.006Z,6.18
2023-04-25T02:01:46.257Z,4.97
2023-04-25T02:06:57.908Z,6.38
2023-04-25T02:12:05.475Z,6.35
2023-04-25T02:17:32.948Z,5.63
2023-04-25T02:22:34.488Z,5.68
2023-04-25T02:27:36.076Z,5.88
2023-04-25T02:32:37.857Z,5.32
2023-04-25T02:37:40.511Z,5.85
2023-04-25T02:42:42.200Z,4.65
2023-04-25T02:47:43.820Z,6.45
2023-04-25T02:52:46.804Z,5.97
2023-04-25T02:57:52.411Z,5.82
2023-04-25T03:03:05.977Z,5.55
2023-04-25T03:08:08.022Z,5.05
2023-04-25T03:13:12.565Z,5.32
2023-04-25T03:18:17.243Z,5.22
2023-04-25T03:23:18.783Z,5.13
2023-04-25T03:28:20.940Z,4.75
2023-04-25T03:33:23.251Z,6.03
2023-04-25T03:38:24.932Z,4.57
2023-04-25T03:43:26.603Z,4.88
2023-04-25T03:48:37.320Z,4.70
2023-04-25T03:53:39.121Z,4.70
2023-04-25T03:59:03.482Z,3.80
2023-04-25T04:04:06.422Z,4.35
2023-04-25T04:09:09.406Z,3.92
2023-04-25T04:14:12.401Z,4.05
2023-04-25T04:19:18.918Z,4.00
2023-04-25T04:24:28.128Z,4.25
2023-04-25T04:29:38.661Z,5.00
2023-04-25T04:35:06.682Z,4.13
2023-04-25T04:40:09.312Z,4.32
2023-04-25T04:45:30.309Z,5.60
2023-04-25T04:50:50.187Z,5.13
2023-04-25T04:56:01.027Z,4.45
2023-04-25T05:01:20.401Z,5.15
2023-04-25T05:06:36.087Z,4.28
2023-04-25T05:11:56.017Z,4.63
2023-04-25T05:17:33.296Z,4.82
2023-04-25T05:28:13.077Z,3.80
2023-04-25T05:33:29.082Z,4.78
2023-04-25T05:43:54.175Z,4.07
2023-04-25T05:49:20.154Z,3.90
2023-04-25T05:54:39.960Z,3.85
2023-04-25T05:59:41.607Z,4.93
2023-04-25T06:04:43.555Z,4.90
2023-04-25T06:09:45.546Z,5.50
2023-04-25T06:14:47.188Z,4.18
2023-04-25T06:19:49.612Z,4.43
2023-04-25T06:24:52.008Z,4.07
2023-04-25T06:29:53.608Z,4.43
2023-04-25T06:34:55.305Z,4.65
2023-04-25T06:39:57.387Z,3.30
2023-04-25T06:44:58.978Z,5.03
2023-04-25T06:50:00.960Z,3.80
2023-04-25T06:55:03.850Z,4.28
2023-04-25T07:00:27.189Z,3.63
2023-04-25T07:05:29.023Z,4.00
2023-04-25T07:10:31.005Z,4.13
2023-04-25T07:15:32.620Z,5.05
2023-04-25T07:20:36.215Z,5.18
2023-04-25T07:25:38.673Z,6.05
2023-04-25T07:30:40.774Z,3.40
2023-04-25T07:35:42.438Z,3.35
2023-04-25T07:40:44.514Z,4.22
2023-04-25T07:45:47.437Z,4.75
2023-04-25T07:50:51.064Z,4.10
2023-04-25T07:55:53.401Z,3.47
2023-04-25T08:00:56.309Z,2.83
2023-04-25T08:06:09.729Z,3.42
2023-04-25T08:11:21.340Z,2.92
2023-04-25T08:16:23.693Z,2.75
2023-04-25T08:21:26.603Z,2.88
2023-04-25T08:26:30.403Z,2.72
2023-04-25T08:31:33.131Z,2.90
2023-04-25T08:36:40.186Z,3.22
2023-04-25T08:42:01.734Z,3.42
2023-04-25T08:47:07.069Z,3.47
2023-04-25T08:52:22.418Z,2.50
2023-04-25T08:57:25.867Z,3.53
2023-04-25T09:02:27.848Z,2.35
2023-04-25T09:07:29.541Z,1.90
2023-04-25T09:12:31.448Z,2.10
2023-04-25T09:17:33.835Z,2.13
2023-04-25T09:22:37.296Z,2.53
2023-04-25T09:27:50.804Z,2.20
2023-04-25T09:33:06.107Z,2.03
2023-04-25T09:38:19.095Z,2.13
2023-04-25T09:43:26.987Z,2.20
2023-04-25T09:48:30.568Z,2.70
2023-04-25T09:53:37.688Z,2.00
2023-04-25T09:58:51.317Z,2.20
2023-04-25T10:03:57.873Z,2.28
2023-04-25T10:09:26.668Z,1.83
2023-04-25T10:14:30.313Z,1.92
2023-04-25T10:19:32.949Z,2.33
2023-04-25T10:24:36.607Z,1.80
2023-04-25T10:29:38.233Z,2.42
2023-04-25T10:34:42.037Z,2.65
2023-04-25T10:39:43.606Z,2.17
2023-04-25T10:45:02.739Z,2.33
2023-04-25T10:50:09.194Z,2.65
2023-04-25T10:55:11.232Z,2.90
2023-04-25T11:00:21.741Z,1.92
2023-04-25T11:05:30.490Z,2.03
2023-04-25T11:10:33.687Z,1.63
2023-04-25T11:15:35.255Z,9.65
2023-04-25T11:20:36.947Z,1.45
2023-04-25T11:25:39.266Z,3.50
2023-04-25T11:30:41.189Z,4.15
2023-04-25T11:35:42.716Z,2.20
2023-04-25T11:40:44.468Z,1.63
2023-04-25T11:45:54.879Z,2.00
2023-04-25T11:50:56.524Z,2.20
2023-04-25T11:55:58.308Z,1.85
2023-04-25T12:00:59.995Z,2.10
2023-04-25T12:06:05.121Z,1.50
2023-04-25T12:11:21.522Z,1.70
2023-04-25T12:16:23.278Z,1.63
2023-04-25T12:21:24.916Z,1.65
2023-04-25T12:26:26.513Z,2.85
2023-04-25T12:31:28.177Z,2.00
2023-04-25T12:36:29.829Z,1.48
2023-04-25T12:41:31.716Z,1.27
2023-04-25T12:46:33.350Z,1.95
2023-04-25T12:51:36.025Z,1.17
2023-04-25T12:56:37.668Z,1.48
2023-04-25T13:01:39.591Z,5.88
2023-04-25T13:06:41.463Z,1.73
2023-04-25T13:11:43.031Z,1.85
2023-04-25T13:16:44.664Z,1.45
2023-04-25T13:21:46.309Z,2.65
2023-04-25T13:26:48.036Z,1.50
2023-04-25T13:31:49.589Z,2.08
2023-04-25T13:36:51.309Z,1.60
2023-04-25T13:41:52.853Z,2.35
2023-04-25T13:46:54.537Z,1.20
2023-04-25T13:51:56.134Z,1.17
2023-04-25T13:56:57.807Z,1.15
2023-04-25T14:01:59.656Z,1.50
2023-04-25T14:07:01.448Z,1.70
2023-04-25T14:12:03.488Z,1.25
2023-04-25T14:17:05.320Z,1.15
2023-04-25T14:22:06.890Z,1.10
2023-04-25T14:27:08.695Z,1.58
2023-04-25T14:32:10.273Z,1.20
2023-04-25T14:37:11.789Z,0.95
2023-04-25T14:42:13.356Z,1.15
2023-04-25T14:47:14.895Z,1.10
2023-04-25T14:52:16.488Z,1.02
2023-04-25T14:57:18.043Z,1.10
2023-04-25T15:02:19.680Z,0.90
2023-04-25T15:07:21.218Z,0.80
2023-04-25T15:12:22.860Z,0.70
2023-04-25T15:17:24.466Z,0.88
2023-04-25T15:22:26.120Z,1.30
2023-04-25T15:27:27.638Z,1.25
2023-04-25T15:32:29.247Z,1.45
2023-04-25T15:37:30.866Z,1.17
2023-04-25T15:42:32.535Z,0.80
2023-04-25T15:47:38.600Z,1.45
2023-04-25T15:52:40.360Z,1.38
2023-04-25T15:57:42.065Z,1.45
2023-04-25T16:02:45.165Z,1.23
2023-04-25T16:07:47.275Z,1.02
2023-04-25T16:12:49.920Z,1.77
2023-04-25T16:17:51.498Z,1.02
2023-04-25T16:22:53.210Z,1.10
2023-04-25T16:27:54.862Z,0.70
2023-04-25T16:32:56.488Z,1.25
2023-04-25T16:37:58.609Z,1.02
2023-04-25T16:43:00.259Z,0.95
2023-04-25T16:48:01.842Z,0.95
2023-04-25T16:53:03.504Z,0.90
2023-04-25T16:58:05.038Z,1.55
2023-04-25T17:03:06.811Z,1.17
2023-04-25T17:08:08.428Z,1.08
2023-04-25T17:13:10.006Z,1.35
2023-04-25T17:18:11.661Z,1.20
2023-04-25T17:23:13.283Z,1.27
2023-04-25T17:28:14.913Z,1.33
2023-04-25T17:33:16.531Z,1.20
2023-04-25T17:38:18.150Z,1.02
2023-04-25T17:43:19.653Z,1.35
2023-04-25T17:48:21.258Z,1.52
2023-04-25T17:53:22.815Z,1.40
2023-04-25T17:58:24.489Z,1.00
2023-04-25T18:03:26.343Z,1.98
2023-04-25T18:08:28.085Z,2.80
2023-04-25T18:13:30.911Z,1.63
2023-04-25T18:18:32.428Z,1.52
2023-04-25T18:23:34.451Z,1.20
2023-04-25T18:28:35.992Z,1.27
2023-04-25T18:33:37.606Z,1.50
2023-04-25T18:38:39.151Z,1.70
2023-04-25T18:43:40.664Z,1.00
2023-04-25T18:48:42.245Z,1.30
2023-04-25T18:53:43.848Z,1.00
2023-04-25T18:58:45.380Z,3.78
2023-04-25T19:03:47.816Z,1.65
2023-04-25T19:08:50.935Z,1.40
2023-04-25T19:13:52.821Z,1.40
2023-04-25T19:18:56.257Z,1.02
2023-04-25T19:23:57.912Z,1.25
2023-04-25T19:29:08.210Z,1.35
2023-04-25T19:34:10.306Z,1.13
2023-04-25T19:39:11.967Z,1.40
2023-04-25T19:44:13.610Z,1.27
2023-04-25T19:49:15.190Z,1.50
2023-04-25T19:54:16.888Z,1.30
2023-04-25T19:59:18.379Z,1.10
2023-04-25T20:04:19.933Z,1.55
2023-04-25T20:09:21.538Z,1.15
2023-04-25T20:14:23.160Z,1.50
2023-04-25T20:19:24.896Z,1.40
2023-04-25T20:24:26.560Z,1.83
2023-04-25T20:29:28.183Z,1.38
2023-04-25T20:34:29.802Z,1.35
2023-04-25T20:39:31.423Z,1.73
2023-04-25T20:44:32.974Z,1.55
2023-04-25T20:49:34.553Z,1.88
2023-04-25T20:54:36.211Z,2.08
2023-04-25T20:59:37.758Z,1.50
2023-04-25T21:04:39.476Z,1.45
2023-04-25T21:09:41.606Z,1.80
2023-04-25T21:14:43.193Z,2.97
2023-04-25T21:19:44.695Z,1.83
2023-04-25T21:24:46.310Z,1.60
2023-04-25T21:29:47.872Z,1.92
2023-04-25T21:34:49.461Z,1.75
2023-04-25T21:39:51.000Z,1.90
2023-04-25T21:44:52.557Z,1.67
2023-04-25T21:49:54.097Z,1.73
2023-04-25T21:54:55.790Z,1.60
2023-04-25T21:59:57.590Z,1.60
2023-04-25T22:04:59.142Z,1.77
2023-04-25T22:10:00.710Z,1.50
2023-04-25T22:15:02.392Z,2.00
2023-04-25T22:20:04.499Z,1.75
2023-04-25T22:25:06.781Z,1.77
2023-04-25T22:30:10.083Z,1.20
2023-04-25T22:35:11.580Z,2.25
2023-04-25T22:40:13.210Z,2.35
2023-04-25T22:45:14.844Z,1.83
2023-04-25T22:50:16.401Z,2.15
2023-04-25T22:55:18.013Z,2.28
2023-04-25T23:00:19.777Z,1.58
2023-04-25T23:05:21.767Z,1.35
2023-04-25T23:10:23.688Z,3.30
2023-04-25T23:15:28.151Z,1.80
2023-04-25T23:20:29.754Z,2.00
2023-04-25T23:25:31.368Z,2.03
2023-04-25T23:30:32.856Z,2.05
2023-04-25T23:35:37.452Z,1.77
2023-04-25T23:40:38.947Z,2.25
2023-04-25T23:45:40.424Z,1.98
2023-04-25T23:50:42.301Z,1.67
2023-04-25T23:55:43.805Z,2.30
